Time;durP1;ratioP1;P1;durP2;ratioP2;P2;SDS_P1;SDS_P2;PMS_P1;PMS_P2;Temp;Humidity;BMP_temperature;BMP_pressure;BME280_temperature;BME280_humidity;BME280_pressure;Samples;Min_cycle;Max_cycle;Signal;HPM_P1;HPM_P2
2023/05/03 00:02:13;;;;;;;1999.90;999.90;;;;;;;11.98;100.00;98306.59;5034128;28;20029;-75
2023/05/03 00:04:40;;;;;;;1999.90;999.90;;;;;;;11.86;100.00;98292.50;5032884;28;20148;-75
2023/05/03 00:07:05;;;;;;;1999.90;999.90;;;;;;;11.74;100.00;98296.50;5033091;28;20131;-75
2023/05/03 00:09:34;;;;;;;1999.90;999.90;;;;;;;11.74;100.00;98291.03;5034748;28;20475;-76
2023/05/03 00:12:00;;;;;;;1999.90;999.90;;;;;;;11.76;100.00;98304.41;5037499;28;20061;-76
2023/05/03 00:14:26;;;;;;;1999.90;999.90;;;;;;;11.75;100.00;98300.84;5033141;28;20040;-75
2023/05/03 00:16:51;;;;;;;1999.90;999.90;;;;;;;11.79;100.00;98298.34;5033195;28;20029;-74
2023/05/03 00:19:18;;;;;;;1999.90;999.90;;;;;;;11.81;100.00;98296.13;5033262;28;20021;-75
2023/05/03 00:21:43;;;;;;;1999.90;999.90;;;;;;;11.80;100.00;98292.59;5033228;28;20026;-76
2023/05/03 00:24:09;;;;;;;1999.90;999.90;;;;;;;11.65;100.00;98284.50;5033162;28;20437;-76
2023/05/03 00:26:34;;;;;;;1999.90;999.90;;;;;;;11.68;100.00;98292.16;5032828;28;20037;-75
2023/05/03 00:29:00;;;;;;;1999.90;999.90;;;;;;;11.69;100.00;98287.47;5033202;28;20541;-74
2023/05/03 00:31:25;;;;;;;1999.90;999.90;;;;;;;11.66;100.00;98279.84;5033543;28;20029;-74
2023/05/03 00:33:50;;;;;;;1999.90;999.90;;;;;;;11.73;100.00;98289.38;5033121;28;20080;-75
2023/05/03 00:36:16;;;;;;;1999.90;999.90;;;;;;;11.67;100.00;98274.09;5033113;28;20029;-75
2023/05/03 00:38:41;;;;;;;1999.90;999.90;;;;;;;11.71;100.00;98279.84;5032489;28;20857;-75
2023/05/03 00:41:09;;;;;;;1999.90;999.90;;;;;;;11.72;100.00;98276.78;5032543;28;20041;-75
2023/05/03 00:43:34;;;;;;;1999.90;999.90;;;;;;;11.67;100.00;98276.00;5032871;28;20045;-74
2023/05/03 00:46:02;;;;;;;1999.90;999.90;;;;;;;11.67;100.00;98274.09;5032556;28;20025;-74
2023/05/03 00:48:28;;;;;;;1999.90;999.90;;;;;;;11.74;100.00;98271.84;5032626;28;20121;-75
2023/05/03 00:50:55;;;;;;;1999.90;999.90;;;;;;;11.61;100.00;98269.78;5032568;28;20033;-75
2023/05/03 00:53:21;;;;;;;1999.90;999.90;;;;;;;11.67;100.00;98279.56;5032741;28;20076;-74
2023/05/03 00:55:50;;;;;;;1999.90;999.90;;;;;;;11.62;100.00;98268.66;5032682;28;20053;-75
2023/05/03 00:58:15;;;;;;;1999.90;999.90;;;;;;;11.65;100.00;98276.28;5014450;28;20021;-75
2023/05/03 01:00:41;;;;;;;1999.90;999.90;;;;;;;11.71;100.00;98277.91;5032135;28;20455;-75
2023/05/03 01:03:07;;;;;;;1999.90;999.90;;;;;;;11.63;100.00;98281.25;5032795;28;20104;-77
2023/05/03 01:05:54;;;;;;;1999.90;999.90;;;;;;;11.69;100.00;98271.88;5031352;28;20855;-74
2023/05/03 01:08:36;;;;;;;1999.90;999.90;;;;;;;11.68;100.00;98278.44;5014559;28;20037;-75
2023/05/03 01:11:19;;;;;;;1999.90;999.90;;;;;;;11.71;100.00;98280.66;5032274;28;20029;-75
2023/05/03 01:13:50;;;;;;;1999.90;999.90;;;;;;;11.68;100.00;98275.69;5032027;28;20022;-75
2023/05/03 01:16:41;;;;;;;1999.90;999.90;;;;;;;11.70;100.00;98278.19;5034667;28;20026;-76
2023/05/03 01:19:18;;;;;;;1999.90;999.90;;;;;;;11.60;100.00;98283.78;5035825;28;20026;-76
2023/05/03 01:21:49;;;;;;;1999.90;999.90;;;;;;;11.56;100.00;98278.06;5031936;28;20033;-75
2023/05/03 01:24:23;;;;;;;1999.90;999.90;;;;;;;11.70;100.00;98281.75;5031980;28;20426;-74
2023/05/03 01:26:48;;;;;;;1999.90;999.90;;;;;;;11.67;100.00;98270.53;5013894;28;20022;-74
2023/05/03 01:29:13;;;;;;;1999.90;999.90;;;;;;;11.67;100.00;98276.00;5029125;28;20026;-74
2023/05/03 01:31:54;;;;;;;1999.90;999.90;;;;;;;11.66;100.00;98272.44;5031701;28;20068;-75
2023/05/03 01:34:24;;;;;;;1999.90;999.90;;;;;;;11.68;100.00;98278.44;5031615;28;20136;-75
2023/05/03 01:36:53;;;;;;;1999.90;999.90;;;;;;;11.52;100.00;98271.56;5015897;28;20060;-75
2023/05/03 01:39:21;;;;;;;1999.90;999.90;;;;;;;11.64;100.00;98280.16;5051495;28;20045;-75
2023/05/03 01:41:50;;;;;;;1999.90;999.90;;;;;;;11.37;100.00;98282.69;5051470;28;20079;-74
2023/05/03 01:44:16;;;;;;;1999.90;999.90;;;;;;;11.52;100.00;98288.00;5033521;28;20389;-75
2023/05/03 01:46:46;;;;;;;1999.90;999.90;;;;;;;11.39;100.00;98285.13;5051364;28;20448;-74
2023/05/03 01:49:12;;;;;;;1999.90;999.90;;;;;;;11.36;100.00;98289.28;5033293;28;20040;-75
2023/05/03 01:51:38;;;;;;;1999.90;999.90;;;;;;;11.45;100.00;98286.72;5050744;28;20033;-75
2023/05/03 01:54:03;;;;;;;1999.90;999.90;;;;;;;11.33;100.00;98281.66;5050844;28;20054;-74
2023/05/03 01:56:30;;;;;;;1999.90;999.90;;;;;;;11.28;100.00;98287.16;5050959;28;20025;-74
2023/05/03 01:58:56;;;;;;;1999.90;999.90;;;;;;;11.17;100.00;98280.19;5051457;28;20028;-74
2023/05/03 02:01:22;;;;;;;1999.90;999.90;;;;;;;11.25;100.00;98287.75;5051988;28;20116;-75
2023/05/03 02:03:47;;;;;;;1999.90;999.90;;;;;;;11.26;100.00;98283.91;5053192;28;20032;-75
2023/05/03 02:06:13;;;;;;;1999.90;999.90;;;;;;;11.25;100.00;98283.09;5051239;28;20036;-74
2023/05/03 02:08:38;;;;;;;1999.90;999.90;;;;;;;11.18;100.00;98276.34;5050819;28;20032;-75
2023/05/03 02:11:03;;;;;;;1999.90;999.90;;;;;;;11.25;100.00;98288.56;5051357;28;20438;-75
2023/05/03 02:13:29;;;;;;;1999.90;999.90;;;;;;;11.19;100.00;98278.78;5050940;28;20083;-74
2023/05/03 02:15:54;;;;;;;1999.90;999.90;;;;;;;11.15;100.00;98271.47;5050987;28;20451;-73
2023/05/03 02:18:21;;;;;;;1999.90;999.90;;;;;;;11.14;100.00;98280.78;5050930;28;20021;-74
2023/05/03 02:20:46;;;;;;;1999.90;999.90;;;;;;;11.07;100.00;98272.91;5050724;28;20599;-75
2023/05/03 02:23:13;;;;;;;1999.90;999.90;;;;;;;11.18;100.00;98279.09;5050425;28;20037;-74
2023/05/03 02:25:39;;;;;;;1999.90;999.90;;;;;;;11.03;100.00;98271.84;5032640;28;20029;-74
2023/05/03 02:28:04;;;;;;;1999.90;999.90;;;;;;;11.12;100.00;98275.56;5050595;28;20048;-75
2023/05/03 02:30:30;;;;;;;1999.90;999.90;;;;;;;10.97;100.00;98270.28;5032848;28;20377;-74
2023/05/03 02:32:55;;;;;;;1999.90;999.90;;;;;;;10.90;100.00;98274.47;5049198;28;20390;-74
2023/05/03 02:35:20;;;;;;;1999.90;999.90;;;;;;;10.87;100.00;98269.59;5030767;28;20109;-74
2023/05/03 02:37:46;;;;;;;1999.90;999.90;;;;;;;10.84;100.00;98254.53;5040605;28;20114;-73
2023/05/03 02:40:11;;;;;;;1999.90;999.90;;;;;;;10.91;100.00;98267.88;5050523;28;20036;-75
2023/05/03 02:42:37;;;;;;;1999.90;999.90;;;;;;;10.92;100.00;98272.25;5032763;28;20025;-75
2023/05/03 02:45:03;;;;;;;1999.90;999.90;;;;;;;10.91;100.00;98256.94;5050400;28;20060;-74
2023/05/03 02:47:29;;;;;;;1999.90;999.90;;;;;;;10.90;100.00;98264.31;5050242;28;20043;-75
2023/05/03 02:49:55;;;;;;;1999.90;999.90;;;;;;;10.98;100.00;98268.34;5050571;28;20100;-74
2023/05/03 02:52:20;;;;;;;1999.90;999.90;;;;;;;10.97;100.00;98261.25;5050187;28;20128;-75
2023/05/03 02:54:48;;;;;;;1999.90;999.90;;;;;;;11.13;100.00;98259.97;5050231;28;20429;-74
2023/05/03 02:57:13;;;;;;;1999.90;999.90;;;;;;;11.12;100.00;98261.09;5032475;28;20485;-75
2023/05/03 02:59:38;;;;;;;1999.90;999.90;;;;;;;11.23;100.00;98270.81;5050464;28;20025;-75
2023/05/03 03:02:04;;;;;;;1999.90;999.90;;;;;;;11.27;100.00;98272.69;5050516;28;20029;-74
2023/05/03 03:04:29;;;;;;;1999.90;999.90;;;;;;;11.28;100.00;98266.09;5053629;28;20021;-75
2023/05/03 03:06:55;;;;;;;1999.90;999.90;;;;;;;11.24;100.00;98256.81;5054346;28;20048;-75
2023/05/03 03:09:21;;;;;;;1999.90;999.90;;;;;;;11.24;100.00;98266.97;5054407;28;20441;-75
2023/05/03 03:11:46;;;;;;;1999.90;999.90;;;;;;;11.21;100.00;98270.28;5036622;28;20021;-75
2023/05/03 03:14:11;;;;;;;1999.90;999.90;;;;;;;11.06;100.00;98275.91;5036582;28;20459;-75
2023/05/03 03:16:38;;;;;;;1999.90;999.90;;;;;;;11.03;100.00;98273.75;5036122;28;20603;-75
2023/05/03 03:19:03;;;;;;;1999.90;999.90;;;;;;;11.03;100.00;98268.28;5036249;28;20051;-75
2023/05/03 03:21:28;;;;;;;1999.90;999.90;;;;;;;11.00;100.00;98264.22;5054258;28;20025;-75
2023/05/03 03:23:55;;;;;;;1999.90;999.90;;;;;;;11.08;100.00;98254.56;5055971;28;20141;-76
2023/05/03 03:26:20;;;;;;;1999.90;999.90;;;;;;;11.14;100.00;98269.81;5049006;28;20035;-75
2023/05/03 03:28:45;;;;;;;1999.90;999.90;;;;;;;11.09;100.00;98269.88;5037436;28;20108;-75
2023/05/03 03:31:11;;;;;;;1999.90;999.90;;;;;;;11.05;100.00;98260.63;5036191;28;20523;-75
2023/05/03 03:33:36;;;;;;;1999.90;999.90;;;;;;;11.10;100.00;98264.13;5054160;28;20024;-74
2023/05/03 03:36:02;;;;;;;1999.90;999.90;;;;;;;11.07;100.00;98270.16;5035772;28;20127;-74
2023/05/03 03:38:27;;;;;;;1999.90;999.90;;;;;;;11.11;100.00;98273.16;5053804;28;20127;-75
2023/05/03 03:40:53;;;;;;;1999.90;999.90;;;;;;;11.08;100.00;98268.25;5053809;28;20120;-74
2023/05/03 03:43:18;;;;;;;1999.90;999.90;;;;;;;11.02;100.00;98272.97;5049587;28;20163;-74
2023/05/03 03:45:44;;;;;;;1999.90;999.90;;;;;;;11.00;100.00;98269.69;5039678;28;20021;-73
2023/05/03 03:48:09;;;;;;;1999.90;999.90;;;;;;;10.90;100.00;98274.47;5052620;28;20060;-73
2023/05/03 03:50:35;;;;;;;1999.90;999.90;;;;;;;10.94;100.00;98270.84;5052974;28;20021;-72
2023/05/03 03:53:01;;;;;;;1999.90;999.90;;;;;;;10.99;100.00;98280.94;5052955;28;20111;-73
2023/05/03 03:55:26;;;;;;;1999.90;999.90;;;;;;;11.01;100.00;98286.94;5035343;28;20041;-73
2023/05/03 03:57:51;;;;;;;1999.90;999.90;;;;;;;11.15;100.00;98282.41;5034959;28;20501;-75
2023/05/03 04:00:17;;;;;;;1999.90;999.90;;;;;;;11.16;100.00;98273.06;5035012;28;20055;-74
2023/05/03 04:02:42;;;;;;;1999.90;999.90;;;;;;;11.00;100.00;98282.56;5039912;28;20498;-74
2023/05/03 04:05:07;;;;;;;1999.90;999.90;;;;;;;11.00;100.00;98269.69;5033167;28;20029;-74
2023/05/03 04:07:33;;;;;;;1999.90;999.90;;;;;;;11.11;100.00;98289.56;5032856;28;20075;-74
2023/05/03 04:09:59;;;;;;;1999.90;999.90;;;;;;;11.05;100.00;98288.81;5015078;28;20029;-75
2023/05/03 04:12:25;;;;;;;1999.90;999.90;;;;;;;11.21;100.00;98287.50;5032803;28;20487;-73
2023/05/03 04:14:51;;;;;;;1999.90;999.90;;;;;;;11.11;100.00;98270.41;5032325;28;20051;-74
2023/05/03 04:17:17;;;;;;;1999.90;999.90;;;;;;;11.12;100.00;98289.25;5032567;28;20131;-74
2023/05/03 04:19:42;;;;;;;1999.90;999.90;;;;;;;11.08;100.00;98287.41;5032262;28;20120;-74
2023/05/03 04:22:08;;;;;;;1999.90;999.90;;;;;;;11.14;100.00;98294.47;5032706;28;20059;-74
2023/05/03 04:24:34;;;;;;;1999.90;999.90;;;;;;;11.10;100.00;98286.00;5032713;28;20497;-72
2023/05/03 04:27:03;;;;;;;1999.90;999.90;;;;;;;11.16;100.00;98294.97;5032638;28;20502;-72
2023/05/03 04:29:28;;;;;;;1999.90;999.90;;;;;;;11.16;100.00;98286.75;5032657;28;20475;-72
2023/05/03 04:31:54;;;;;;;1999.90;999.90;;;;;;;11.24;100.00;98286.16;5032390;28;20028;-73
2023/05/03 04:34:20;;;;;;;1999.90;999.90;;;;;;;11.18;100.00;98292.78;5055248;28;20398;-73
2023/05/03 04:36:46;;;;;;;1999.90;999.90;;;;;;;11.31;100.00;98297.53;5051397;28;20111;-72
2023/05/03 04:39:11;;;;;;;1999.90;999.90;;;;;;;11.27;100.00;98293.78;5044389;28;20215;-72
2023/05/03 04:41:37;;;;;;;1999.90;999.90;;;;;;;11.17;100.00;98280.19;5044526;28;20026;-74
2023/05/03 04:44:04;;;;;;;1999.90;999.90;;;;;;;11.24;100.00;98299.84;5031555;28;20029;-71
2023/05/03 04:46:30;;;;;;;1999.90;999.90;;;;;;;11.29;100.00;98297.84;5032056;28;20037;-73
2023/05/03 04:48:55;;;;;;;1999.90;999.90;;;;;;;11.34;100.00;98304.38;5031225;28;20096;-71
2023/05/03 04:51:20;;;;;;;1999.90;999.90;;;;;;;11.36;100.00;98302.16;5031726;28;20112;-72
2023/05/03 04:53:45;;;;;;;1999.90;999.90;;;;;;;11.44;100.00;98299.59;5013926;28;20065;-72
2023/05/03 04:56:11;;;;;;;1999.90;999.90;;;;;;;11.41;100.00;98302.91;5031658;28;20100;-72
2023/05/03 04:58:36;;;;;;;1999.90;999.90;;;;;;;11.38;100.00;98308.16;5031715;28;20504;-72
2023/05/03 05:01:02;;;;;;;1999.90;999.90;;;;;;;11.51;100.00;98308.28;5013664;28;20036;-73
2023/05/03 05:03:29;;;;;;;1999.90;999.90;;;;;;;11.41;100.00;98311.13;5031825;28;20088;-72
2023/05/03 05:05:54;;;;;;;1999.90;999.90;;;;;;;11.39;100.00;98318.00;5013578;28;20430;-72
2023/05/03 05:08:19;;;;;;;1999.90;999.90;;;;;;;11.52;100.00;98315.38;5031512;28;20045;-73
2023/05/03 05:10:45;;;;;;;1999.90;999.90;;;;;;;11.56;100.00;98319.16;5031626;28;20395;-73
2023/05/03 05:13:10;;;;;;;1999.90;999.90;;;;;;;11.57;100.00;98323.53;5031369;28;20056;-72
2023/05/03 05:15:36;;;;;;;1999.90;999.90;;;;;;;11.62;100.00;98315.25;5013574;28;20096;-72
2023/05/03 05:18:01;;;;;;;1999.90;999.90;;;;;;;11.72;100.00;98330.78;5031422;28;20036;-72
2023/05/03 05:20:26;;;;;;;1999.90;999.90;;;;;;;11.89;100.00;98331.13;5031012;28;20029;-72
2023/05/03 05:22:52;;;;;;;1999.90;999.90;;;;;;;11.93;100.00;98332.16;5031412;28;20018;-72
2023/05/03 05:25:18;;;;;;;1999.90;999.90;;;;;;;12.04;100.00;98338.31;5027427;28;20025;-72
2023/05/03 05:27:43;;;;;;;1999.90;999.90;;;;;;;12.07;100.00;98335.78;5020100;28;20482;-73
2023/05/03 05:30:09;;;;;;;1999.90;999.90;;;;;;;12.15;100.00;98339.81;5031084;28;20025;-72
2023/05/03 05:32:34;;;;;;;1999.90;999.90;;;;;;;12.09;100.00;98341.00;5023648;28;20071;-73
2023/05/03 05:35:00;;;;;;;1999.90;999.90;;;;;;;12.10;100.00;98337.13;5029399;28;20068;-73
2023/05/03 05:37:26;;;;;;;1999.90;999.90;;;;;;;12.22;100.00;98335.56;5024114;28;20038;-73
2023/05/03 05:39:52;;;;;;;1999.90;999.90;;;;;;;12.26;100.00;98341.28;5029563;28;20025;-72
2023/05/03 05:42:17;;;;;;;1999.90;999.90;;;;;;;12.35;100.00;98344.97;5031044;28;20064;-73
2023/05/03 05:44:42;;;;;;;1999.90;999.90;;;;;;;12.59;100.00;98351.19;5030306;28;20045;-76
2023/05/03 05:47:09;;;;;;;1999.90;999.90;;;;;;;12.88;100.00;98354.56;5028566;28;20094;-73
2023/05/03 05:49:34;;;;;;;1999.90;999.90;;;;;;;13.01;100.00;98352.16;5029826;28;20025;-72
2023/05/03 05:52:00;;;;;;;1999.90;999.90;;;;;;;13.04;100.00;98354.28;5029113;28;20026;-72
2023/05/03 05:54:25;;;;;;;1999.90;999.90;;;;;;;13.15;100.00;98362.09;5029686;28;20505;-72
2023/05/03 05:56:51;;;;;;;1999.90;999.90;;;;;;;13.25;100.00;98355.63;5029817;28;20026;-73
2023/05/03 05:59:16;;;;;;;1999.90;999.90;;;;;;;13.43;100.00;98360.22;5030805;28;20036;-72
2023/05/03 06:01:44;;;;;;;1999.90;999.90;;;;;;;13.40;100.00;98366.31;5030661;28;20037;-73
2023/05/03 06:04:11;;;;;;;1999.90;999.90;;;;;;;13.51;100.00;98370.50;5030988;28;20132;-73
2023/05/03 06:06:36;;;;;;;1999.90;999.90;;;;;;;13.57;100.00;98376.69;5030598;28;20028;-72
2023/05/03 06:09:02;;;;;;;1999.90;999.90;;;;;;;13.78;100.00;98370.50;5030489;28;20026;-73
2023/05/03 06:11:28;;;;;;;1999.90;999.90;;;;;;;13.93;100.00;98372.13;5030299;28;20037;-73
2023/05/03 06:13:54;;;;;;;1999.90;999.90;;;;;;;13.79;100.00;98363.88;5030376;28;20039;-73
2023/05/03 06:16:21;;;;;;;1999.90;999.90;;;;;;;14.03;100.00;98357.34;5030194;28;20069;-72
2023/05/03 06:18:46;;;;;;;1999.90;999.90;;;;;;;13.89;100.00;98374.69;5030231;28;20068;-72
2023/05/03 06:21:11;;;;;;;1999.90;999.90;;;;;;;13.97;100.00;98378.63;5029128;28;20029;-72
2023/05/03 06:23:38;;;;;;;1999.90;999.90;;;;;;;13.99;100.00;98372.84;5030247;28;20079;-72
2023/05/03 06:26:04;;;;;;;1999.90;999.90;;;;;;;14.14;100.00;98380.75;5030550;28;20029;-73
2023/05/03 06:28:29;;;;;;;1999.90;999.90;;;;;;;14.14;100.00;98380.75;5030328;28;20384;-73
2023/05/03 06:30:54;;;;;;;1999.90;999.90;;;;;;;14.26;100.00;98379.13;5029507;28;20482;-72
2023/05/03 06:33:20;;;;;;;1999.90;999.90;;;;;;;14.45;100.00;98381.75;5029783;28;20033;-73
2023/05/03 06:35:48;;;;;;;1999.90;999.90;;;;;;;14.71;100.00;98388.31;5030126;28;20383;-72
2023/05/03 06:38:14;;;;;;;1999.90;999.90;;;;;;;14.76;100.00;98376.34;5029204;28;20550;-72
2023/05/03 06:40:42;;;;;;;1999.90;999.90;;;;;;;14.77;100.00;98389.81;5027776;28;20048;-72
2023/05/03 06:43:07;;;;;;;1999.90;999.90;;;;;;;14.77;100.00;98394.50;5030617;28;20026;-73
2023/05/03 06:45:33;;;;;;;1999.90;999.90;;;;;;;14.70;100.00;98391.38;5030512;28;20067;-72
2023/05/03 06:47:58;;;;;;;1999.90;999.90;;;;;;;14.76;100.00;98393.69;5029627;28;20089;-72
2023/05/03 06:50:25;;;;;;;1999.90;999.90;;;;;;;14.20;100.00;98385.84;5029802;28;20080;-71
2023/05/03 06:52:50;;;;;;;1999.90;999.90;;;;;;;14.76;100.00;98384.59;5030473;28;20033;-72
2023/05/03 06:55:16;;;;;;;1999.90;999.90;;;;;;;14.88;100.00;98390.38;5029764;28;20040;-72
2023/05/03 06:57:42;;;;;;;1999.90;999.90;;;;;;;15.20;100.00;98400.31;5029340;28;20032;-72
2023/05/03 07:00:08;;;;;;;1999.90;999.90;;;;;;;15.38;100.00;98402.88;5029905;28;20049;-72
2023/05/03 07:02:33;;;;;;;1999.90;999.90;;;;;;;15.47;100.00;98397.44;5031266;28;20026;-72
2023/05/03 07:04:59;;;;;;;1999.90;999.90;;;;;;;15.40;100.00;98405.34;5032430;28;20021;-73
2023/05/03 07:07:24;;;;;;;1999.90;999.90;;;;;;;14.85;100.00;98396.50;5030731;28;20040;-72
2023/05/03 07:09:49;;;;;;;1999.90;999.90;;;;;;;14.91;100.00;98390.56;5011908;28;20037;-72
2023/05/03 07:12:15;;;;;;;1999.90;999.90;;;;;;;14.89;100.00;98403.84;5030270;28;20035;-72
2023/05/03 07:14:41;;;;;;;1999.90;999.90;;;;;;;15.11;100.00;98392.00;5030244;28;20163;-74
2023/05/03 07:17:07;;;;;;;1999.90;999.90;;;;;;;15.27;100.00;98400.69;5029147;28;20025;-73
2023/05/03 07:19:32;;;;;;;1999.90;999.90;;;;;;;15.41;100.00;98390.44;5029159;28;20034;-73
2023/05/03 07:21:57;;;;;;;1999.90;999.90;;;;;;;15.70;100.00;98399.03;5025029;28;20479;-74
2023/05/03 07:24:24;;;;;;;1999.90;999.90;;;;;;;15.94;100.00;98391.16;5041745;28;20024;-75
2023/05/03 07:26:50;;;;;;;1999.90;999.90;;;;;;;16.13;100.00;98393.69;5035058;28;20025;-74
2023/05/03 07:29:15;;;;;;;1999.90;999.90;;;;;;;16.60;100.00;98392.00;5029155;28;20414;-73
2023/05/03 07:31:43;;;;;;;1999.90;999.90;;;;;;;17.01;100.00;98384.03;5016092;28;20020;-73
2023/05/03 07:34:08;;;;;;;1999.90;999.90;;;;;;;17.46;100.00;98391.91;5024209;28;20048;-74
2023/05/03 07:36:33;;;;;;;1999.90;999.90;;;;;;;17.56;100.00;98391.59;5023515;28;20017;-73
2023/05/03 07:39:00;;;;;;;1999.90;999.90;;;;;;;17.19;100.00;98397.84;5031848;28;20040;-75
2023/05/03 07:41:25;;;;;;;1999.90;999.90;;;;;;;16.91;100.00;98387.16;5055575;28;20033;-75
2023/05/03 07:43:51;;;;;;;1999.90;999.90;;;;;;;17.65;100.00;98400.69;5050797;28;20028;-74
2023/05/03 07:46:16;;;;;;;1999.90;999.90;;;;;;;16.84;100.00;98392.34;5054688;28;20048;-83
2023/05/03 07:48:41;;;;;;;1999.90;999.90;;;;;;;16.98;100.00;98398.50;5037006;28;20021;-75
2023/05/03 07:51:07;;;;;;;1999.90;999.90;;;;;;;17.21;100.00;98398.31;5051538;28;20078;-75
2023/05/03 07:53:34;;;;;;;1999.90;999.90;;;;;;;17.82;100.00;98400.66;5024504;28;20033;-75
2023/05/03 07:55:59;;;;;;;1999.90;999.90;;;;;;;17.83;100.00;98396.72;5015518;28;20036;-74
2023/05/03 07:58:25;;;;;;;1999.90;999.90;;;;;;;17.57;100.00;98401.53;5033598;28;20025;-75
2023/05/03 08:00:51;;;;;;;1999.90;999.90;;;;;;;17.64;100.00;98397.09;5053247;28;20027;-74
2023/05/03 08:03:16;;;;;;;1999.90;999.90;;;;;;;17.18;100.00;98390.69;5053187;28;20033;-74
2023/05/03 08:05:42;;;;;;;1999.90;999.90;;;;;;;17.30;100.00;98401.88;5053394;28;20036;-74
2023/05/03 08:08:08;;;;;;;1999.90;999.90;;;;;;;17.51;100.00;98408.38;5056149;28;20021;-76
2023/05/03 08:10:36;;;;;;;1999.90;999.90;;;;;;;17.33;100.00;98409.50;5061788;28;20544;-76
2023/05/03 08:13:02;;;;;;;1999.90;999.90;;;;;;;16.67;100.00;98394.25;5060820;28;20028;-76
2023/05/03 08:15:28;;;;;;;1999.90;999.90;;;;;;;16.48;100.00;98405.59;5034552;28;20040;-78
2023/05/03 08:17:53;;;;;;;1999.90;999.90;;;;;;;15.89;100.00;98410.63;5039586;28;20515;-75
2023/05/03 08:20:19;;;;;;;1999.90;999.90;;;;;;;16.01;100.00;98416.34;5053011;28;20025;-75
2023/05/03 08:22:45;;;;;;;1999.90;999.90;;;;;;;16.10;100.00;98415.59;5038053;28;20368;-76
2023/05/03 08:25:11;;;;;;;1999.90;999.90;;;;;;;16.13;100.00;98406.66;5041303;28;20178;-76
2023/05/03 08:27:37;;;;;;;1999.90;999.90;;;;;;;16.00;100.00;98412.00;5043434;28;20089;-75
2023/05/03 08:30:04;;;;;;;1999.90;999.90;;;;;;;16.16;100.00;98404.09;5019161;28;20387;-76
2023/05/03 08:32:29;;;;;;;1999.90;999.90;;;;;;;15.90;100.00;98401.22;5041581;28;20136;-75
2023/05/03 08:34:55;;;;;;;1999.90;999.90;;;;;;;15.69;100.00;98408.44;5061486;28;20092;-76
2023/05/03 08:37:21;;;;;;;1999.90;999.90;;;;;;;15.77;100.00;98407.66;5060542;28;20462;-76
2023/05/03 08:39:47;;;;;;;1999.90;999.90;;;;;;;15.88;100.00;98420.03;5035224;28;20024;-76
2023/05/03 08:42:13;;;;;;;1999.90;999.90;;;;;;;16.17;100.00;98421.44;5053517;28;20021;-75
2023/05/03 08:44:46;;;;;;;1999.90;999.90;;;;;;;16.02;100.00;98411.66;5052382;28;20056;-75
2023/05/03 08:47:15;;;;;;;1999.90;999.90;;;;;;;15.84;100.00;98415.47;5024174;28;20186;-76
2023/05/03 08:49:41;;;;;;;1999.90;999.90;;;;;;;15.73;100.00;98422.41;5032686;28;20548;-76
2023/05/03 08:52:08;;;;;;;1999.90;999.90;;;;;;;15.69;100.00;98421.41;5047386;28;20124;-75
2023/05/03 08:54:34;;;;;;;1999.90;999.90;;;;;;;15.54;100.00;98415.16;5052254;28;20095;-75
2023/05/03 08:56:59;;;;;;;1999.90;999.90;;;;;;;15.66;100.00;98420.13;5033970;28;20430;-77
2023/05/03 08:59:27;;;;;;;1999.90;999.90;;;;;;;15.60;100.00;98407.56;5036055;28;20017;-75
2023/05/03 09:01:52;;;;;;;1999.90;999.90;;;;;;;15.62;100.00;98421.88;5033092;28;20036;-75
2023/05/03 09:04:18;;;;;;;1999.90;999.90;;;;;;;15.54;100.00;98430.91;5047817;28;20037;-74
2023/05/03 09:06:43;;;;;;;1999.90;999.90;;;;;;;15.56;100.00;98417.63;5033952;28;20473;-76
2023/05/03 09:09:09;;;;;;;1999.90;999.90;;;;;;;15.78;100.00;98425.84;5034264;28;20559;-75
2023/05/03 09:11:37;;;;;;;1999.90;999.90;;;;;;;15.66;100.00;98439.44;5033681;28;20116;-76
2023/05/03 09:14:14;;;;;;;1999.90;999.90;;;;;;;15.57;100.00;98423.97;5050289;28;20044;-75
2023/05/03 09:16:41;;;;;;;1999.90;999.90;;;;;;;15.73;100.00;98433.44;5051728;28;20036;-74
2023/05/03 09:19:10;;;;;;;1999.90;999.90;;;;;;;15.76;100.00;98428.09;5051481;28;20025;-74
2023/05/03 09:21:36;;;;;;;1999.90;999.90;;;;;;;15.52;100.00;98435.91;5052008;28;20261;-75
2023/05/03 09:24:03;;;;;;;1999.90;999.90;;;;;;;15.80;100.00;98440.13;5051761;28;20541;-74
2023/05/03 09:26:33;;;;;;;1999.90;999.90;;;;;;;15.78;100.00;98427.78;5051806;28;20052;-74
2023/05/03 09:29:00;;;;;;;1999.90;999.90;;;;;;;15.96;100.00;98427.53;5052040;28;20090;-76
2023/05/03 09:31:31;;;;;;;1999.90;999.90;;;;;;;16.18;100.00;98436.88;5052151;28;20036;-75
2023/05/03 09:33:58;;;;;;;1999.90;999.90;;;;;;;16.02;100.00;98425.44;5052360;28;20032;-76
2023/05/03 09:36:24;;;;;;;1999.90;999.90;;;;;;;15.58;100.00;98434.66;5052538;28;20040;-74
2023/05/03 09:38:51;;;;;;;1999.90;999.90;;;;;;;15.71;100.00;98436.50;5051299;28;20053;-77
2023/05/03 09:41:29;;;;;;;1999.90;999.90;;;;;;;16.07;100.00;98433.56;5051839;28;20025;-76
2023/05/03 09:43:55;;;;;;;1999.90;999.90;;;;;;;15.45;100.00;98439.09;5033918;28;20040;-75
2023/05/03 09:46:23;;;;;;;1999.90;999.90;;;;;;;15.83;100.00;98441.44;5052810;28;20029;-76
2023/05/03 09:48:49;;;;;;;1999.90;999.90;;;;;;;15.45;100.00;98430.81;5056121;28;20024;-76
2023/05/03 09:51:15;;;;;;;1999.90;999.90;;;;;;;15.41;100.00;98438.09;5033636;28;20029;-76
2023/05/03 09:53:41;;;;;;;1999.90;999.90;;;;;;;15.37;100.00;98442.63;5033541;28;20083;-75
2023/05/03 09:56:11;;;;;;;1999.90;999.90;;;;;;;15.37;100.00;98433.53;5051158;28;20482;-74
2023/05/03 09:58:37;;;;;;;1999.90;999.90;;;;;;;15.29;100.00;98434.28;5033869;28;20083;-76
2023/05/03 10:01:02;;;;;;;1999.90;999.90;;;;;;;15.22;100.00;98436.69;5033333;28;20076;-76
2023/05/03 10:03:49;;;;;;;1999.90;999.90;;;;;;;15.25;100.00;98438.81;5051119;28;20059;-76
2023/05/03 10:06:32;;;;;;;1999.90;999.90;;;;;;;15.46;100.00;98435.22;5050054;28;20013;-75
2023/05/03 10:09:19;;;;;;;1999.90;999.90;;;;;;;15.44;100.00;98436.66;5044895;28;20029;-76
2023/05/03 10:11:50;;;;;;;1999.90;999.90;;;;;;;15.21;100.00;98435.03;5032036;28;20032;-76
2023/05/03 10:14:16;;;;;;;1999.90;999.90;;;;;;;15.59;100.00;98428.03;5047313;28;20024;-75
2023/05/03 10:16:48;;;;;;;1999.90;999.90;;;;;;;15.64;100.00;98430.63;5019949;28;20025;-75
2023/05/03 10:19:20;;;;;;;1999.90;999.90;;;;;;;15.88;100.00;98436.59;5032291;28;20032;-75
2023/05/03 10:22:01;;;;;;;1999.90;999.90;;;;;;;16.00;100.00;98434.06;5042368;28;20104;-74
2023/05/03 10:24:26;;;;;;;1999.90;999.90;;;;;;;16.21;100.00;98422.44;5043464;28;20078;-76
2023/05/03 10:26:52;;;;;;;1999.90;999.90;;;;;;;16.15;100.00;98407.16;5033246;28;20471;-75
2023/05/03 10:29:36;;;;;;;1999.90;999.90;;;;;;;16.21;100.00;98436.22;5046314;28;20117;-75
2023/05/03 10:32:24;;;;;;;1999.90;999.90;;;;;;;16.33;100.00;98422.63;5021484;28;20033;-77
2023/05/03 10:35:14;;;;;;;1999.90;999.90;;;;;;;16.36;100.00;98419.22;5040091;28;20052;-81
2023/05/03 10:37:41;;;;;;;1999.90;999.90;;;;;;;16.69;100.00;98428.75;5021590;28;20041;-75
2023/05/03 10:40:09;;;;;;;1999.90;999.90;;;;;;;16.67;100.00;98428.22;5001951;28;20442;-75
2023/05/03 10:42:36;;;;;;;1999.90;999.90;;;;;;;16.73;100.00;98424.19;5008864;28;20009;-76
2023/05/03 10:45:02;;;;;;;1999.90;999.90;;;;;;;16.89;100.00;98421.75;5014678;28;20049;-74
2023/05/03 10:47:28;;;;;;;1999.90;999.90;;;;;;;16.88;100.00;98426.50;5013164;28;20105;-74